createdAt,value
2022-08-05T00:01:28.525Z,28.20
2022-08-05T00:03:57.184Z,28.10
2022-08-05T00:06:30.732Z,28.00
2022-08-05T00:09:01.093Z,28.00
2022-08-05T00:11:34.751Z,27.90
2022-08-05T00:14:13.123Z,27.90
2022-08-05T00:16:52.836Z,27.90
2022-08-05T00:19:25.118Z,27.90
2022-08-05T00:22:00.564Z,27.90
2022-08-05T00:24:31.277Z,27.90
2022-08-05T00:26:58.847Z,27.90
2022-08-05T00:29:26.129Z,27.90
2022-08-05T00:32:13.476Z,27.80
2022-08-05T00:35:04.726Z,27.80
2022-08-05T00:37:29.165Z,27.70
2022-08-05T00:40:17.908Z,27.70
2022-08-05T00:42:54.764Z,27.70
2022-08-05T00:45:38.034Z,27.60
2022-08-05T00:48:08.326Z,27.60
2022-08-05T00:50:36.308Z,27.70
2022-08-05T00:53:03.246Z,27.60
2022-08-05T00:55:43.543Z,27.60
2022-08-05T00:58:14.176Z,27.60
2022-08-05T01:00:42.010Z,27.60
2022-08-05T01:03:10.427Z,27.60
2022-08-05T01:05:49.151Z,27.50
2022-08-05T01:08:39.950Z,27.50
2022-08-05T01:11:13.674Z,27.50
2022-08-05T01:13:59.837Z,27.60
2022-08-05T01:16:30.497Z,27.50
2022-08-05T01:19:01.099Z,27.50
2022-08-05T01:21:38.103Z,27.50
2022-08-05T01:24:14.356Z,27.50
2022-08-05T01:26:55.544Z,27.50
2022-08-05T01:29:28.561Z,27.50
2022-08-05T01:32:00.465Z,27.40
2022-08-05T01:34:39.251Z,27.40
2022-08-05T01:37:18.148Z,27.40
2022-08-05T01:39:59.191Z,27.40
2022-08-05T01:42:26.936Z,27.40
2022-08-05T01:44:56.053Z,27.30
2022-08-05T01:47:24.384Z,27.30
2022-08-05T01:50:07.241Z,27.40
2022-08-05T01:52:43.007Z,27.30
2022-08-05T01:55:12.876Z,27.20
2022-08-05T01:58:11.073Z,27.20
2022-08-05T02:00:30.533Z,27.10
2022-08-05T02:03:24.333Z,27.00
2022-08-05T02:05:57.871Z,27.10
2022-08-05T02:08:29.617Z,27.00
2022-08-05T02:10:59.872Z,27.00
2022-08-05T02:13:36.424Z,27.00
2022-08-05T02:16:22.068Z,27.00
2022-08-05T02:18:54.553Z,26.90
2022-08-05T02:21:26.499Z,26.90
2022-08-05T02:24:07.015Z,26.90
2022-08-05T02:26:38.187Z,26.90
2022-08-05T02:29:24.285Z,26.90
2022-08-05T02:31:54.544Z,27.00
2022-08-05T02:34:23.243Z,26.90
2022-08-05T02:36:51.589Z,26.80
2022-08-05T02:39:21.801Z,26.70
2022-08-05T02:42:00.429Z,26.70
2022-08-05T02:44:28.446Z,26.70
2022-08-05T02:47:00.860Z,26.70
2022-08-05T02:49:36.006Z,26.70
2022-08-05T02:52:05.276Z,26.90
2022-08-05T02:54:34.968Z,26.90
2022-08-05T02:57:03.045Z,26.90
2022-08-05T02:59:34.642Z,26.70
2022-08-05T03:02:22.502Z,26.50
2022-08-05T03:04:53.212Z,26.30
2022-08-05T03:07:40.677Z,26.40
2022-08-05T03:10:08.312Z,26.20
2022-08-05T03:12:36.504Z,26.10
2022-08-05T03:15:04.412Z,26.10
2022-08-05T03:17:33.593Z,26.00
2022-08-05T03:20:08.807Z,26.00
2022-08-05T03:22:36.956Z,25.90
2022-08-05T03:25:31.577Z,25.90
2022-08-05T03:27:59.225Z,26.00
2022-08-05T03:30:33.367Z,26.00
2022-08-05T03:33:05.687Z,26.10
2022-08-05T03:35:33.722Z,26.10
2022-08-05T03:38:01.098Z,26.10
2022-08-05T03:40:31.983Z,26.20
2022-08-05T03:43:15.956Z,26.30
2022-08-05T03:45:57.645Z,26.20
2022-08-05T03:48:25.299Z,26.20
2022-08-05T03:51:33.460Z,26.10
2022-08-05T03:55:50.895Z,26.10
2022-08-05T03:56:46.621Z,26.10
2022-08-05T03:59:47.272Z,25.90
2022-08-05T04:02:38.647Z,25.80
2022-08-05T04:05:09.726Z,25.70
2022-08-05T04:07:57.192Z,25.70
2022-08-05T04:10:27.682Z,25.60
2022-08-05T04:12:55.335Z,25.40
2022-08-05T04:15:24.313Z,25.40
2022-08-05T04:17:57.132Z,25.30
2022-08-05T04:20:24.266Z,25.30
2022-08-05T04:22:51.232Z,25.30
2022-08-05T04:25:17.950Z,25.20
2022-08-05T04:27:56.414Z,25.10
2022-08-05T04:30:24.876Z,25.00
2022-08-05T04:32:54.481Z,24.90
2022-08-05T04:35:21.105Z,24.90
2022-08-05T04:38:02.797Z,25.00
2022-08-05T04:40:44.533Z,24.80
2022-08-05T04:43:17.444Z,24.70
2022-08-05T04:45:54.992Z,24.60
2022-08-05T04:48:27.534Z,24.70
2022-08-05T04:51:03.195Z,24.80
2022-08-05T04:53:33.511Z,24.80
2022-08-05T04:56:33.123Z,24.80
2022-08-05T04:58:49.550Z,25.00
2022-08-05T05:02:06.075Z,25.00
2022-08-05T05:04:02.984Z,25.00
2022-08-05T05:06:39.777Z,25.10
2022-08-05T05:09:14.293Z,25.20
2022-08-05T05:11:53.094Z,25.30
2022-08-05T05:14:31.677Z,25.40
2022-08-05T05:17:03.541Z,25.40
2022-08-05T05:19:37.202Z,25.50
2022-08-05T05:22:23.673Z,25.50
2022-08-05T05:25:00.228Z,25.60
2022-08-05T05:27:41.616Z,25.70
2022-08-05T05:30:31.143Z,25.70
2022-08-05T05:33:09.080Z,25.60
2022-08-05T05:35:47.400Z,25.70
2022-08-05T05:38:14.782Z,25.70
2022-08-05T05:40:51.547Z,25.80
2022-08-05T05:43:22.229Z,25.90
2022-08-05T05:46:13.671Z,25.80
2022-08-05T05:48:43.928Z,25.80
2022-08-05T05:51:14.987Z,25.80
2022-08-05T05:53:46.091Z,25.80
2022-08-05T05:56:32.782Z,26.40
2022-08-05T05:59:05.901Z,26.80
2022-08-05T06:01:37.995Z,27.40
2022-08-05T06:04:05.998Z,27.90
2022-08-05T06:06:35.101Z,29.00
2022-08-05T06:09:03.916Z,29.80
2022-08-05T06:11:31.264Z,30.50
2022-08-05T06:13:58.173Z,31.30
2022-08-05T06:16:32.873Z,31.70
2022-08-05T06:19:06.012Z,32.20
2022-08-05T06:21:36.548Z,32.40
2022-08-05T06:24:11.476Z,31.50
2022-08-05T06:26:51.801Z,31.50
2022-08-05T06:29:25.237Z,30.50
2022-08-05T06:32:25.531Z,29.80
2022-08-05T06:34:58.423Z,30.00
2022-08-05T06:37:55.896Z,30.30
2022-08-05T06:40:13.685Z,30.40
2022-08-05T06:42:40.482Z,30.10
2022-08-05T06:45:08.873Z,29.80
2022-08-05T06:48:47.408Z,30.40
2022-08-05T06:50:23.001Z,30.50
2022-08-05T06:52:58.879Z,30.90
2022-08-05T06:55:36.129Z,31.30
2022-08-05T06:58:29.035Z,31.10
2022-08-05T07:00:51.870Z,30.50
2022-08-05T07:03:18.638Z,29.90
2022-08-05T07:05:46.250Z,29.30
2022-08-05T07:08:13.355Z,28.90
2022-08-05T07:10:53.073Z,28.70
2022-08-05T07:18:01.492Z,27.90
2022-08-05T07:20:31.012Z,27.40
2022-08-05T07:22:27.684Z,27.10
2022-08-05T07:24:56.482Z,27.10
2022-08-05T07:27:23.365Z,27.00
2022-08-05T07:30:30.279Z,26.90
2022-08-05T07:32:43.541Z,27.00
2022-08-05T07:35:56.734Z,27.00
2022-08-05T07:38:05.199Z,27.20
2022-08-05T07:40:38.895Z,27.10
2022-08-05T07:43:14.531Z,27.00
2022-08-05T07:45:57.029Z,27.00
2022-08-05T07:48:36.589Z,26.90
2022-08-05T07:51:23.662Z,26.90
2022-08-05T07:53:58.755Z,26.90
2022-08-05T07:57:00.441Z,26.90
2022-08-05T07:59:15.303Z,26.90
2022-08-05T08:01:52.454Z,26.90
2022-08-05T08:04:37.750Z,26.90
2022-08-05T08:07:05.589Z,26.90
2022-08-05T08:09:34.532Z,26.80
2022-08-05T08:12:09.108Z,26.60
2022-08-05T08:14:46.706Z,26.40
2022-08-05T08:17:16.239Z,26.00
2022-08-05T08:20:21.241Z,25.80
2022-08-05T08:22:30.612Z,25.50
2022-08-05T08:25:03.093Z,25.30
2022-08-05T08:27:44.835Z,25.20
2022-08-05T08:30:28.465Z,25.30
2022-08-05T08:33:04.533Z,25.40
2022-08-05T08:35:41.427Z,25.70
2022-08-05T08:38:35.154Z,25.80
2022-08-05T08:41:08.723Z,26.10
2022-08-05T08:45:24.433Z,26.20
2022-08-05T08:46:24.484Z,26.40
2022-08-05T08:49:04.938Z,26.60
2022-08-05T08:52:05.956Z,26.90
2022-08-05T08:54:27.209Z,27.40
2022-08-05T08:56:56.844Z,28.00
2022-08-05T08:59:27.690Z,28.90
2022-08-05T09:02:05.196Z,29.80
2022-08-05T09:04:37.666Z,30.00
2022-08-05T09:07:28.575Z,30.00
2022-08-05T09:09:56.162Z,29.80
2022-08-05T09:12:27.299Z,29.70
2022-08-05T09:15:03.989Z,29.60
2022-08-05T09:17:40.516Z,29.90
2022-08-05T09:20:10.633Z,30.10
2022-08-05T09:22:56.213Z,30.40
2022-08-05T09:26:02.194Z,30.80
2022-08-05T09:28:23.374Z,31.60
2022-08-05T09:30:57.296Z,33.50
2022-08-05T09:33:24.505Z,34.90
2022-08-05T09:36:11.611Z,35.30
2022-08-05T09:38:59.193Z,35.20
2022-08-05T09:41:26.360Z,35.60
2022-08-05T09:43:59.468Z,35.80
2022-08-05T09:46:28.437Z,36.70
2022-08-05T09:49:08.054Z,37.50
2022-08-05T09:51:49.392Z,38.10
2022-08-05T09:54:28.918Z,38.40
2022-08-05T09:56:55.841Z,38.50
2022-08-05T09:59:24.460Z,38.30
2022-08-05T10:01:58.315Z,37.80
2022-08-05T10:04:35.039Z,36.80
2022-08-05T10:07:19.579Z,36.00
2022-08-05T10:10:13.952Z,35.60
2022-08-05T10:12:49.743Z,35.60
2022-08-05T10:15:27.654Z,36.80
2022-08-05T10:18:05.819Z,37.10
2022-08-05T10:20:34.486Z,38.20
2022-08-05T10:23:01.610Z,39.30
2022-08-05T10:25:28.410Z,39.70
2022-08-05T10:28:09.334Z,39.50
2022-08-05T10:32:46.780Z,39.90
2022-08-05T10:33:29.143Z,39.00
2022-08-05T10:36:03.960Z,38.30
2022-08-05T10:38:33.027Z,38.60
2022-08-05T10:41:28.104Z,39.00
2022-08-05T10:44:36.064Z,38.90
2022-08-05T10:47:26.676Z,39.00
2022-08-05T10:50:31.962Z,39.40
2022-08-05T10:52:58.748Z,39.00
2022-08-05T10:56:03.849Z,38.90
2022-08-05T10:58:35.916Z,38.80
2022-08-05T11:01:54.647Z,39.40
2022-08-05T11:04:28.291Z,39.90
2022-08-05T11:07:06.903Z,40.10
2022-08-05T11:09:51.898Z,39.50
2022-08-05T11:12:35.039Z,38.70
2022-08-05T11:15:19.786Z,38.10
2022-08-05T11:18:03.766Z,37.80
2022-08-05T11:20:57.282Z,36.70
2022-08-05T11:24:02.983Z,36.40
2022-08-05T11:26:28.563Z,36.40
2022-08-05T11:29:11.896Z,35.50
2022-08-05T11:31:58.580Z,35.40
2022-08-05T11:34:50.918Z,35.30
2022-08-05T11:38:30.567Z,35.10
2022-08-05T11:41:34.349Z,35.00
2022-08-05T11:44:40.848Z,34.90
2022-08-05T11:50:10.528Z,34.50
2022-08-05T11:52:46.207Z,34.50
2022-08-05T11:55:16.493Z,34.60
2022-08-05T11:58:09.444Z,35.10
2022-08-05T12:00:38.282Z,36.30
2022-08-05T12:03:15.876Z,37.00
2022-08-05T12:05:51.001Z,36.80
2022-08-05T12:08:18.602Z,36.10
2022-08-05T12:10:46.580Z,35.40
2022-08-05T12:13:28.152Z,34.90
2022-08-05T12:16:04.447Z,34.50
2022-08-05T12:18:40.969Z,34.40
2022-08-05T12:21:17.407Z,34.50
2022-08-05T12:24:04.314Z,34.70
2022-08-05T12:26:35.506Z,34.90
2022-08-05T12:29:09.490Z,35.30
2022-08-05T12:31:42.501Z,35.30
2022-08-05T12:34:20.685Z,34.70
2022-08-05T12:36:49.963Z,34.00
2022-08-05T12:39:17.709Z,33.20
2022-08-05T12:41:48.675Z,32.70
2022-08-05T12:44:28.681Z,32.90
2022-08-05T12:47:04.497Z,33.20
2022-08-05T12:50:03.419Z,33.20
2022-08-05T12:52:33.870Z,32.80
2022-08-05T12:55:22.085Z,32.80
2022-08-05T12:58:50.572Z,33.40
2022-08-05T13:02:01.382Z,33.30
2022-08-05T13:03:32.571Z,33.60
2022-08-05T13:06:00.880Z,33.70
2022-08-05T13:08:32.217Z,34.30
2022-08-05T13:11:02.626Z,34.00
2022-08-05T13:14:06.643Z,34.30
2022-08-05T13:16:20.453Z,34.50
2022-08-05T13:18:58.469Z,34.50
2022-08-05T13:21:28.230Z,34.60
2022-08-05T13:24:05.158Z,34.80
2022-08-05T13:26:34.941Z,34.40
2022-08-05T13:29:01.714Z,33.70
2022-08-05T13:32:03.261Z,33.20
2022-08-05T13:34:22.502Z,33.00
2022-08-05T13:36:50.663Z,32.50
2022-08-05T13:40:14.334Z,32.20
2022-08-05T13:42:04.288Z,32.20
2022-08-05T13:44:32.770Z,32.10
2022-08-05T13:47:08.397Z,32.30
2022-08-05T13:49:36.054Z,32.60
2022-08-05T13:52:12.485Z,32.80
2022-08-05T13:54:39.203Z,32.50
2022-08-05T13:57:06.414Z,32.10
2022-08-05T13:59:33.311Z,31.70
2022-08-05T14:02:03.122Z,31.40
2022-08-05T14:04:51.342Z,31.10
2022-08-05T14:07:26.073Z,30.70
2022-08-05T14:10:09.020Z,30.50
2022-08-05T14:12:35.856Z,30.30
2022-08-05T14:16:04.519Z,30.10
2022-08-05T14:17:50.121Z,30.20
2022-08-05T14:20:19.785Z,30.20
2022-08-05T14:22:54.359Z,30.20
2022-08-05T14:25:22.468Z,30.10
2022-08-05T14:27:54.572Z,30.10
2022-08-05T14:30:21.480Z,30.40
2022-08-05T14:32:51.290Z,30.30
2022-08-05T14:35:22.885Z,30.40
2022-08-05T14:37:53.600Z,30.20
2022-08-05T14:40:24.687Z,30.00
2022-08-05T14:42:55.247Z,29.90
2022-08-05T14:45:22.558Z,29.90
2022-08-05T14:48:03.416Z,29.80
2022-08-05T14:50:33.107Z,29.70
2022-08-05T14:53:05.945Z,29.60
2022-08-05T14:55:39.154Z,29.70
2022-08-05T14:58:12.216Z,29.40
2022-08-05T15:00:58.825Z,29.40
2022-08-05T15:03:34.088Z,29.50
2022-08-05T15:06:07.298Z,29.40
2022-08-05T15:08:59.489Z,29.30
2022-08-05T15:11:51.388Z,29.20
2022-08-05T15:14:34.768Z,29.10
2022-08-05T15:17:14.600Z,29.30
2022-08-05T15:19:55.112Z,29.20
2022-08-05T15:22:22.451Z,29.20
2022-08-05T15:24:59.433Z,29.20
2022-08-05T15:27:26.226Z,29.10
2022-08-05T15:29:59.138Z,29.00
2022-08-05T15:32:28.844Z,29.00
2022-08-05T15:34:56.974Z,29.10
2022-08-05T15:38:33.519Z,29.10
2022-08-05T15:40:58.549Z,29.10
2022-08-05T15:43:12.506Z,29.10
2022-08-05T15:45:45.716Z,29.00
2022-08-05T15:48:14.074Z,28.90
2022-08-05T15:50:41.349Z,28.80
2022-08-05T15:53:12.490Z,28.80
2022-08-05T15:56:02.659Z,28.60
2022-08-05T15:58:28.323Z,28.40
2022-08-05T16:01:04.338Z,28.40
2022-08-05T16:03:42.227Z,28.30
2022-08-05T16:06:11.442Z,28.20
2022-08-05T16:08:43.567Z,28.10
2022-08-05T16:11:11.443Z,27.90
2022-08-05T16:13:40.476Z,27.80
2022-08-05T16:16:07.352Z,27.60
2022-08-05T16:18:51.683Z,27.40
2022-08-05T16:21:20.527Z,27.20
2022-08-05T16:23:54.045Z,26.70
2022-08-05T16:26:26.404Z,26.50
2022-08-05T16:28:54.440Z,26.50
2022-08-05T16:31:21.765Z,26.50
2022-08-05T16:33:48.623Z,26.40
2022-08-05T16:36:20.480Z,26.30
2022-08-05T16:39:02.490Z,26.30
2022-08-05T16:42:12.822Z,26.40
2022-08-05T16:44:18.472Z,26.40
2022-08-05T16:46:55.985Z,26.30
2022-08-05T16:49:23.312Z,26.30
2022-08-05T16:51:51.152Z,26.10
2022-08-05T16:54:26.244Z,26.00
2022-08-05T16:56:56.497Z,25.90
2022-08-05T16:59:23.562Z,25.70
2022-08-05T17:01:54.607Z,25.80
2022-08-05T17:04:23.657Z,25.70
2022-08-05T17:06:53.388Z,25.50
2022-08-05T17:09:20.532Z,25.30
2022-08-05T17:11:48.821Z,25.20
2022-08-05T17:14:22.162Z,25.20
2022-08-05T17:17:01.329Z,25.10
2022-08-05T17:19:29.374Z,25.00
2022-08-05T17:21:59.700Z,24.80
2022-08-05T17:24:38.538Z,24.70
2022-08-05T17:27:16.190Z,24.60
2022-08-05T17:29:42.845Z,24.60
2022-08-05T17:32:16.706Z,24.50
2022-08-05T17:34:53.444Z,24.40
2022-08-05T17:37:40.721Z,24.40
2022-08-05T17:40:14.265Z,24.40
2022-08-05T17:42:50.638Z,24.30
2022-08-05T17:45:23.164Z,24.30
2022-08-05T17:47:55.125Z,24.40
2022-08-05T17:50:29.645Z,24.30
2022-08-05T17:53:00.779Z,24.30
2022-08-05T17:55:37.498Z,24.30
2022-08-05T17:58:05.944Z,24.10
2022-08-05T18:00:34.529Z,24.10
2022-08-05T18:03:02.153Z,24.20
2022-08-05T18:05:28.797Z,24.10
2022-08-05T18:08:02.344Z,24.20
2022-08-05T18:10:30.133Z,24.10
2022-08-05T18:13:00.434Z,24.10
2022-08-05T18:15:31.184Z,24.10
2022-08-05T18:18:05.565Z,24.10
2022-08-05T18:20:37.755Z,24.00
2022-08-05T18:23:12.077Z,23.90
2022-08-05T18:25:44.914Z,24.00
2022-08-05T18:28:13.963Z,23.90
2022-08-05T18:30:50.818Z,23.90
2022-08-05T18:33:22.529Z,24.00
2022-08-05T18:36:03.790Z,24.00
2022-08-05T18:38:34.448Z,24.10
2022-08-05T18:41:58.475Z,24.10
2022-08-05T18:43:49.395Z,24.20
2022-08-05T18:46:20.001Z,24.30
2022-08-05T18:48:48.190Z,24.30
2022-08-05T18:52:06.454Z,24.30
2022-08-05T18:54:28.548Z,24.20
2022-08-05T18:57:01.696Z,24.20
2022-08-05T18:59:43.189Z,24.30
2022-08-05T19:02:26.511Z,24.20
2022-08-05T19:05:01.270Z,24.20
2022-08-05T19:07:30.078Z,24.20
2022-08-05T19:13:02.356Z,24.10
2022-08-05T19:16:00.118Z,24.10
2022-08-05T19:18:21.929Z,24.00
2022-08-05T19:20:52.502Z,24.00
2022-08-05T19:24:04.397Z,23.90
2022-08-05T19:26:09.332Z,23.90
2022-08-05T19:28:42.019Z,23.90
2022-08-05T19:31:09.721Z,23.90
2022-08-05T19:33:40.730Z,23.90
2022-08-05T19:36:16.871Z,23.90
2022-08-05T19:38:45.002Z,23.70
2022-08-05T19:41:12.168Z,23.70
2022-08-05T19:44:06.549Z,23.70
2022-08-05T19:46:30.038Z,23.70
2022-08-05T19:49:03.569Z,23.80
2022-08-05T19:52:04.459Z,23.80
2022-08-05T19:54:25.429Z,23.70
2022-08-05T19:56:58.804Z,23.80
2022-08-05T19:59:59.391Z,23.60
2022-08-05T20:02:13.059Z,23.60
2022-08-05T20:04:43.020Z,23.70
2022-08-05T20:07:13.480Z,23.60
2022-08-05T20:09:53.879Z,23.60
2022-08-05T20:12:22.947Z,23.60
2022-08-05T20:14:52.326Z,23.70
2022-08-05T20:17:23.665Z,23.70
2022-08-05T20:19:50.882Z,23.70
2022-08-05T20:22:26.752Z,23.60
2022-08-05T20:24:54.774Z,23.60
2022-08-05T20:27:26.880Z,23.60
2022-08-05T20:29:57.961Z,23.60
2022-08-05T20:32:26.402Z,23.60
2022-08-05T20:34:53.271Z,23.60
2022-08-05T20:38:04.883Z,23.50
2022-08-05T20:40:07.608Z,23.40
2022-08-05T20:42:34.752Z,23.40
2022-08-05T20:45:02.693Z,23.30
2022-08-05T20:47:31.843Z,23.20
2022-08-05T20:50:02.029Z,23.10
2022-08-05T20:52:29.212Z,23.00
2022-08-05T20:54:59.451Z,23.00
2022-08-05T20:57:43.912Z,23.00
2022-08-05T21:00:20.863Z,22.90
2022-08-05T21:03:06.314Z,22.90
2022-08-05T21:05:38.319Z,22.80
2022-08-05T21:08:20.057Z,22.80
2022-08-05T21:10:49.186Z,22.80
2022-08-05T21:13:20.245Z,22.80
2022-08-05T21:15:56.414Z,22.70
2022-08-05T21:18:24.079Z,22.70
2022-08-05T21:20:54.163Z,22.70
2022-08-05T21:23:22.419Z,22.70
2022-08-05T21:25:49.465Z,22.60
2022-08-05T21:28:18.497Z,22.60
2022-08-05T21:30:45.419Z,22.60
2022-08-05T21:33:22.267Z,22.50
2022-08-05T21:35:55.697Z,22.50
2022-08-05T21:38:25.500Z,22.50
2022-08-05T21:40:52.129Z,22.50
2022-08-05T21:43:24.722Z,22.50
2022-08-05T21:45:57.462Z,22.50
2022-08-05T21:48:27.679Z,22.50
2022-08-05T21:50:54.628Z,22.40
2022-08-05T21:53:21.655Z,22.30
2022-08-05T21:56:05.322Z,22.20
2022-08-05T21:58:36.860Z,22.30
2022-08-05T22:01:10.755Z,22.30
2022-08-05T22:03:48.877Z,22.30
2022-08-05T22:06:22.782Z,22.30
2022-08-05T22:08:51.868Z,22.20
2022-08-05T22:11:19.567Z,22.10
2022-08-05T22:14:18.133Z,22.00
2022-08-05T22:16:51.143Z,22.00
2022-08-05T22:20:02.125Z,21.90
2022-08-05T22:22:07.042Z,21.90
2022-08-05T22:24:53.654Z,21.90
2022-08-05T22:28:11.418Z,21.90
2022-08-05T22:30:35.256Z,21.90
2022-08-05T22:33:03.905Z,21.90
2022-08-05T22:35:48.785Z,21.90
2022-08-05T22:38:16.485Z,21.90
2022-08-05T22:40:49.822Z,21.90
2022-08-05T22:43:36.955Z,21.80
2022-08-05T22:46:12.142Z,21.80
2022-08-05T22:48:41.187Z,21.70
2022-08-05T22:51:08.307Z,21.70
2022-08-05T22:53:42.799Z,21.70
2022-08-05T22:56:16.996Z,21.60
2022-08-05T22:58:43.948Z,21.60
2022-08-05T23:01:10.596Z,21.60
2022-08-05T23:03:58.950Z,21.50
2022-08-05T23:06:26.295Z,21.50
2022-08-05T23:08:53.117Z,21.50
2022-08-05T23:11:19.749Z,21.40
2022-08-05T23:13:51.493Z,21.40
2022-08-05T23:16:33.302Z,21.40
2022-08-05T23:19:00.297Z,21.30
2022-08-05T23:21:42.512Z,21.20
2022-08-05T23:24:14.498Z,21.20
2022-08-05T23:26:41.976Z,21.20
2022-08-05T23:29:10.942Z,21.20
2022-08-05T23:31:42.518Z,21.10
2022-08-05T23:34:09.502Z,21.20
2022-08-05T23:36:39.836Z,21.10
2022-08-05T23:39:16.581Z,21.10
2022-08-05T23:41:50.714Z,21.10
2022-08-05T23:44:17.331Z,21.10
2022-08-05T23:46:46.833Z,21.10
2022-08-05T23:49:17.073Z,21.00
2022-08-05T23:52:07.917Z,21.10
2022-08-05T23:54:38.108Z,21.10
2022-08-05T23:57:06.502Z,21.10
2022-08-05T23:59:37.701Z,21.10
